Time;durP1;ratioP1;P1;durP2;ratioP2;P2;SDS_P1;SDS_P2;PMS_P1;PMS_P2;Temp;Humidity;BMP_temperature;BMP_pressure;BME280_temperature;BME280_humidity;BME280_pressure;Samples;Min_cycle;Max_cycle;Signal;HPM_P1;HPM_P2
2021/12/09 00:01:37;;;;;;;61.50;43.20;;;;;;;-2.02;76.10;94525.53;5041703;28;20287;-61
2021/12/09 00:04:06;;;;;;;64.93;46.40;;;;;;;-1.89;76.11;94535.97;5033247;28;20260;-64
2021/12/09 00:06:34;;;;;;;61.40;44.67;;;;;;;-1.79;75.66;94542.25;5040218;28;20230;-61
2021/12/09 00:09:06;;;;;;;57.30;42.50;;;;;;;-1.75;75.60;94547.22;5032998;28;20229;-63
2021/12/09 00:11:34;;;;;;;53.37;39.70;;;;;;;-1.78;75.31;94550.81;5033933;28;20226;-62
2021/12/09 00:14:00;;;;;;;55.67;41.23;;;;;;;-1.93;75.97;94531.91;5037235;28;20239;-62
2021/12/09 00:16:25;;;;;;;57.83;42.30;;;;;;;-1.86;75.92;94517.75;5036837;28;20332;-62
2021/12/09 00:18:51;;;;;;;50.00;36.97;;;;;;;-1.80;75.38;94532.84;5038180;28;20214;-62
2021/12/09 00:21:17;;;;;;;43.70;33.93;;;;;;;-1.85;75.59;94536.63;5034284;28;20226;-63
2021/12/09 00:23:42;;;;;;;43.20;33.00;;;;;;;-1.90;75.80;94534.28;5037601;28;20237;-62
2021/12/09 00:26:08;;;;;;;41.93;32.70;;;;;;;-1.95;75.81;94520.03;5031674;28;20310;-65
2021/12/09 00:28:33;;;;;;;39.63;31.07;;;;;;;-1.97;75.58;94517.56;5031889;28;20214;-61
2021/12/09 00:30:59;;;;;;;40.40;32.57;;;;;;;-1.86;76.05;94519.50;5038229;28;20209;-65
2021/12/09 00:33:24;;;;;;;39.30;31.13;;;;;;;-1.93;75.61;94534.47;5033576;28;20232;-61
2021/12/09 00:35:56;;;;;;;37.40;30.47;;;;;;;-1.93;75.64;94523.34;5031066;28;20321;-62
2021/12/09 00:38:34;;;;;;;38.83;30.90;;;;;;;-1.92;75.58;94515.53;5035706;28;20260;-61
2021/12/09 00:41:06;;;;;;;41.03;30.87;;;;;;;-1.92;75.85;94489.78;5039432;28;20232;-61
2021/12/09 00:43:32;;;;;;;38.27;30.20;;;;;;;-1.95;75.67;94487.38;5035199;28;20242;-65
2021/12/09 00:45:58;;;;;;;35.63;28.70;;;;;;;-1.84;75.81;94490.16;5036137;28;20228;-65
2021/12/09 00:48:25;;;;;;;39.10;29.77;;;;;;;-1.92;75.98;94488.94;5040281;28;20233;-62
2021/12/09 00:50:52;;;;;;;34.27;27.93;;;;;;;-1.83;75.87;94478.91;5035122;28;20210;-63
2021/12/09 00:53:18;;;;;;;32.73;26.83;;;;;;;-1.83;76.06;94484.06;5037465;28;20240;-63
2021/12/09 00:55:43;;;;;;;31.57;26.20;;;;;;;-1.83;76.22;94494.38;5038606;28;20226;-63
2021/12/09 00:58:09;;;;;;;33.20;28.20;;;;;;;-1.63;75.99;94497.50;5035692;28;20241;-63
2021/12/09 01:00:35;;;;;;;33.53;27.93;;;;;;;-1.68;75.34;94486.69;5038748;28;20230;-66
2021/12/09 01:03:00;;;;;;;37.50;28.07;;;;;;;-1.57;75.83;94492.84;5035887;28;20217;-63
2021/12/09 01:05:27;;;;;;;34.30;27.77;;;;;;;-1.56;76.19;94485.94;5032282;28;20214;-62
2021/12/09 01:07:53;;;;;;;33.27;26.80;;;;;;;-1.57;76.06;94499.75;5032272;28;20257;-62
2021/12/09 01:10:18;;;;;;;32.90;26.13;;;;;;;-1.58;75.95;94496.34;5036813;28;20206;-63
2021/12/09 01:12:45;;;;;;;31.23;24.77;;;;;;;-1.39;76.07;94508.97;5039579;28;20213;-62
2021/12/09 01:15:13;;;;;;;28.80;22.97;;;;;;;-1.35;75.45;94507.84;5041369;28;20228;-62
2021/12/09 01:17:39;;;;;;;29.23;24.10;;;;;;;-1.24;75.07;94506.38;5041980;28;20248;-62
2021/12/09 01:20:08;;;;;;;27.13;22.33;;;;;;;-1.27;75.30;94504.81;5038922;28;20230;-62
2021/12/09 01:22:38;;;;;;;28.87;22.87;;;;;;;-1.27;75.49;94507.38;5038411;28;20210;-63
2021/12/09 01:25:06;;;;;;;30.70;24.90;;;;;;;-1.31;75.86;94500.78;5042903;28;20206;-64
2021/12/09 01:27:36;;;;;;;27.77;23.23;;;;;;;-1.43;76.04;94494.59;5039020;28;20225;-62
2021/12/09 01:30:09;;;;;;;26.67;22.07;;;;;;;-1.52;76.39;94487.41;5039633;28;20233;-62
2021/12/09 01:32:35;;;;;;;27.30;23.27;;;;;;;-1.33;76.09;94484.56;5043025;28;20287;-62
2021/12/09 01:35:00;;;;;;;29.07;23.13;;;;;;;-1.27;75.84;94503.97;5039942;28;20234;-63
2021/12/09 01:37:26;;;;;;;34.87;25.93;;;;;;;-1.22;75.74;94489.06;5039568;28;20333;-63
2021/12/09 01:39:52;;;;;;;32.97;26.37;;;;;;;-1.28;75.77;94497.16;5042517;28;20233;-62
2021/12/09 01:42:17;;;;;;;35.37;27.90;;;;;;;-1.34;75.76;94501.78;5054304;28;20218;-61
2021/12/09 01:44:43;;;;;;;36.97;28.53;;;;;;;-1.20;76.16;94511.25;5038211;28;20234;-62
2021/12/09 01:47:09;;;;;;;38.70;29.10;;;;;;;-1.20;75.86;94502.69;5041845;28;20288;-62
2021/12/09 01:49:35;;;;;;;38.40;30.67;;;;;;;-1.04;75.64;94493.09;5036302;28;20236;-64
2021/12/09 01:52:00;;;;;;;39.57;30.57;;;;;;;-0.95;75.25;94491.69;5039202;28;20206;-62
2021/12/09 01:54:26;;;;;;;35.60;29.03;;;;;;;-1.06;75.34;94489.75;5042297;28;20228;-66
2021/12/09 01:56:52;;;;;;;39.67;30.90;;;;;;;-1.12;75.84;94485.81;5039694;28;20308;-64
2021/12/09 01:59:18;;;;;;;35.60;30.03;;;;;;;-1.19;76.35;94479.38;5036620;28;20234;-61
2021/12/09 02:01:43;;;;;;;38.57;30.17;;;;;;;-1.23;76.57;94495.13;5041281;28;20281;-61
2021/12/09 02:04:10;;;;;;;40.33;31.07;;;;;;;-1.15;76.44;94495.47;5038518;28;20229;-66
2021/12/09 02:06:40;;;;;;;40.40;31.77;;;;;;;-1.13;76.32;94506.53;5036880;28;20236;-63
2021/12/09 02:09:08;;;;;;;43.10;31.73;;;;;;;-1.13;75.44;94489.28;5036794;28;20242;-63
2021/12/09 02:11:34;;;;;;;41.27;31.93;;;;;;;-1.27;75.85;94481.59;5039139;28;20221;-63
2021/12/09 02:14:00;;;;;;;40.10;30.60;;;;;;;-1.18;76.41;94495.66;5036767;28;20248;-62
2021/12/09 02:16:27;;;;;;;37.70;29.87;;;;;;;-1.12;75.79;94485.81;5040860;28;20219;-63
2021/12/09 02:18:53;;;;;;;40.43;31.73;;;;;;;-1.18;75.82;94486.16;5038109;28;20225;-64
2021/12/09 02:21:23;;;;;;;46.13;34.37;;;;;;;-1.28;75.98;94479.94;5039577;28;20252;-66
2021/12/09 02:23:51;;;;;;;54.67;39.17;;;;;;;-1.25;75.86;94484.91;5037341;28;20264;-62
2021/12/09 02:26:20;;;;;;;55.10;40.93;;;;;;;-1.15;75.59;94493.75;5041330;28;20253;-65
2021/12/09 02:28:46;;;;;;;52.63;40.70;;;;;;;-1.30;75.68;94492.09;5035025;28;20202;-63
2021/12/09 02:31:12;;;;;;;61.67;43.97;;;;;;;-1.25;75.72;94499.56;5037769;28;20214;-62
2021/12/09 02:33:38;;;;;;;67.60;47.80;;;;;;;-1.29;76.12;94510.97;5038980;28;20285;-63
2021/12/09 02:36:06;;;;;;;67.23;47.53;;;;;;;-1.29;75.46;94514.38;5036134;28;20226;-63
2021/12/09 02:38:31;;;;;;;67.93;47.60;;;;;;;-1.20;75.15;94513.00;5038692;28;20253;-64
2021/12/09 02:40:58;;;;;;;70.97;47.17;;;;;;;-1.21;75.53;94506.19;5037458;28;20238;-63
2021/12/09 02:43:27;;;;;;;78.13;50.07;;;;;;;-1.14;75.83;94508.28;5037038;28;20218;-65
2021/12/09 02:45:54;;;;;;;74.30;50.00;;;;;;;-1.28;75.49;94495.41;5041553;28;20289;-64
2021/12/09 02:48:21;;;;;;;73.57;47.83;;;;;;;-1.23;76.02;94501.13;5041228;28;20221;-64
2021/12/09 02:50:48;;;;;;;71.20;48.87;;;;;;;-1.28;75.75;94489.41;5034363;28;20289;-62
2021/12/09 02:53:14;;;;;;;70.63;46.83;;;;;;;-1.35;75.48;94489.78;5037429;28;20249;-62
2021/12/09 02:55:39;;;;;;;69.73;47.70;;;;;;;-1.36;74.27;94480.41;5038901;28;20226;-66
2021/12/09 02:58:05;;;;;;;68.37;44.90;;;;;;;-1.40;74.37;94476.34;5034361;28;20225;-65
2021/12/09 03:00:31;;;;;;;65.47;43.83;;;;;;;-1.51;74.27;94483.91;5037583;28;20448;-62
2021/12/09 03:02:58;;;;;;;64.17;45.43;;;;;;;-1.48;74.25;94496.59;5041841;28;20218;-62
2021/12/09 03:05:25;;;;;;;64.63;44.90;;;;;;;-1.50;74.29;94506.19;5032859;28;20253;-61
2021/12/09 03:07:51;;;;;;;67.07;46.70;;;;;;;-1.53;74.34;94497.81;5037210;28;20333;-63
2021/12/09 03:10:21;;;;;;;64.30;45.50;;;;;;;-1.59;74.49;94499.81;5038185;28;20214;-65
2021/12/09 03:12:49;;;;;;;69.03;46.07;;;;;;;-1.65;75.36;94495.03;5036044;28;20225;-66
2021/12/09 03:15:16;;;;;;;71.10;47.90;;;;;;;-1.51;75.16;94498.56;5034489;28;20235;-66
2021/12/09 03:17:43;;;;;;;67.67;44.60;;;;;;;-1.48;74.73;94486.28;5040554;28;20226;-63
2021/12/09 03:20:11;;;;;;;65.60;45.73;;;;;;;-1.52;75.16;94482.25;5036030;28;20221;-62
2021/12/09 03:22:38;;;;;;;65.13;45.93;;;;;;;-1.54;75.16;94478.94;5033554;28;20214;-62
2021/12/09 03:25:07;;;;;;;65.30;46.13;;;;;;;-1.62;75.10;94488.88;5036150;28;20210;-63
2021/12/09 03:27:32;;;;;;;67.53;45.83;;;;;;;-1.59;75.41;94492.09;5038703;28;20224;-62
2021/12/09 03:29:58;;;;;;;65.90;45.47;;;;;;;-1.37;74.83;94499.34;5036739;28;20225;-63
2021/12/09 03:32:23;;;;;;;61.80;43.07;;;;;;;-1.29;74.89;94508.41;5037250;28;20223;-65
2021/12/09 03:34:49;;;;;;;57.17;42.60;;;;;;;-1.24;74.84;94521.84;5034436;28;20217;-62
2021/12/09 03:37:22;;;;;;;56.57;41.40;;;;;;;-1.30;75.13;94515.31;5030869;28;20230;-67
2021/12/09 03:39:49;;;;;;;58.13;41.17;;;;;;;-1.25;75.22;94499.56;5039898;28;20221;-67
2021/12/09 03:42:18;;;;;;;60.47;42.90;;;;;;;-1.19;74.97;94504.34;5039365;28;20259;-64
2021/12/09 03:44:45;;;;;;;60.33;41.47;;;;;;;-1.11;74.76;94502.13;5039425;28;20226;-64
2021/12/09 03:47:13;;;;;;;59.67;43.43;;;;;;;-1.24;74.88;94499.44;5037283;28;20218;-63
2021/12/09 03:49:41;;;;;;;59.67;42.77;;;;;;;-1.37;75.41;94490.81;5036844;28;20244;-63
2021/12/09 03:52:08;;;;;;;63.73;43.13;;;;;;;-1.36;75.90;94482.97;5033135;28;20240;-63
2021/12/09 03:54:33;;;;;;;58.83;42.03;;;;;;;-1.35;75.68;94484.63;5033188;28;20222;-63
2021/12/09 03:56:59;;;;;;;61.30;44.07;;;;;;;-1.36;75.56;94487.31;5039341;28;20261;-65
2021/12/09 03:59:25;;;;;;;60.27;43.10;;;;;;;-1.46;75.68;94501.69;5028603;28;20249;-65
2021/12/09 04:01:51;;;;;;;63.60;43.27;;;;;;;-1.38;75.98;94512.38;5037678;28;20205;-62
2021/12/09 04:04:18;;;;;;;61.87;43.90;;;;;;;-1.34;75.00;94519.84;5036301;28;20218;-65
2021/12/09 04:06:45;;;;;;;61.77;44.20;;;;;;;-1.39;75.46;94515.84;5034152;28;20234;-66
2021/12/09 04:09:12;;;;;;;59.50;41.20;;;;;;;-1.31;74.88;94523.97;5035677;28;20226;-65
2021/12/09 04:11:38;;;;;;;64.43;43.40;;;;;;;-1.33;74.63;94520.66;5036659;28;20226;-62
2021/12/09 04:14:04;;;;;;;62.67;43.87;;;;;;;-1.40;74.59;94525.34;5035724;28;20222;-63
2021/12/09 04:16:31;;;;;;;62.43;44.20;;;;;;;-1.48;75.52;94524.97;5038948;28;20199;-63
2021/12/09 04:18:57;;;;;;;62.60;42.73;;;;;;;-1.39;74.89;94524.44;5035563;28;20241;-62
2021/12/09 04:21:23;;;;;;;62.77;43.07;;;;;;;-1.41;75.08;94520.28;5029433;28;20238;-64
2021/12/09 04:23:49;;;;;;;59.37;42.27;;;;;;;-1.35;74.90;94525.91;5037257;28;20276;-63
2021/12/09 04:26:14;;;;;;;62.37;41.93;;;;;;;-1.28;74.50;94512.63;5036752;28;20213;-62
2021/12/09 04:28:42;;;;;;;61.77;41.93;;;;;;;-1.24;74.29;94519.25;5034827;28;20217;-62
2021/12/09 04:31:08;;;;;;;60.43;43.50;;;;;;;-1.16;73.80;94510.13;5036393;28;20198;-65
2021/12/09 04:33:36;;;;;;;64.10;43.20;;;;;;;-1.24;74.40;94501.22;5033980;28;20302;-64
2021/12/09 04:36:02;;;;;;;64.53;42.70;;;;;;;-1.28;74.50;94525.50;5038028;28;20253;-63
2021/12/09 04:38:28;;;;;;;57.60;41.70;;;;;;;-1.24;74.60;94532.16;5034034;28;20238;-62
2021/12/09 04:40:54;;;;;;;57.60;41.00;;;;;;;-1.26;74.58;94528.84;5038023;28;20237;-62
2021/12/09 04:43:19;;;;;;;59.63;41.03;;;;;;;-1.37;75.20;94535.47;5034734;28;20213;-62
2021/12/09 04:45:46;;;;;;;55.70;41.67;;;;;;;-1.30;75.25;94532.53;5033158;28;20234;-62
2021/12/09 04:48:11;;;;;;;57.17;40.60;;;;;;;-1.10;74.27;94529.56;5038019;28;20214;-62
2021/12/09 04:50:38;;;;;;;55.90;42.00;;;;;;;-1.20;74.50;94525.91;5034254;28;20271;-64
2021/12/09 04:53:06;;;;;;;62.03;42.47;;;;;;;-1.19;74.42;94536.13;5032716;28;20233;-62
2021/12/09 04:55:33;;;;;;;59.73;42.00;;;;;;;-1.35;74.48;94528.47;5051406;28;20210;-62
2021/12/09 04:57:59;;;;;;;56.33;40.63;;;;;;;-1.27;74.83;94546.06;5030810;28;20297;-62
2021/12/09 05:00:27;;;;;;;58.27;42.43;;;;;;;-1.16;75.09;94545.44;5032742;28;20223;-61
2021/12/09 05:05:32;;;;;;;60.60;41.00;;;;;;;-1.17;74.94;94533.47;5035756;28;20227;-62
2021/12/09 05:07:58;;;;;;;66.97;43.17;;;;;;;-1.17;75.04;94531.69;5036317;28;20256;-61
2021/12/09 05:10:23;;;;;;;60.87;43.10;;;;;;;-1.14;75.36;94535.84;5035959;28;20209;-62
2021/12/09 05:12:49;;;;;;;53.93;39.97;;;;;;;-1.27;74.99;94528.00;5034338;28;20218;-61
2021/12/09 05:15:14;;;;;;;60.57;42.43;;;;;;;-1.11;75.09;94548.56;5032060;28;20232;-61
2021/12/09 05:17:39;;;;;;;59.57;42.37;;;;;;;-1.20;75.25;94529.31;5037703;28;20297;-62
2021/12/09 05:20:06;;;;;;;57.73;40.90;;;;;;;-1.20;75.07;94537.06;5032110;28;20225;-63
2021/12/09 05:22:31;;;;;;;58.40;41.57;;;;;;;-1.30;75.20;94542.84;5032864;28;20216;-61
2021/12/09 05:24:58;;;;;;;55.40;41.03;;;;;;;-1.45;75.63;94555.72;5036265;28;20249;-62
2021/12/09 05:27:23;;;;;;;58.70;41.13;;;;;;;-1.56;75.92;94547.81;5027711;28;20256;-64
2021/12/09 05:30:03;;;;;;;58.30;43.43;;;;;;;-1.54;76.27;94551.13;5026155;28;20242;-62
2021/12/09 05:32:29;;;;;;;57.17;42.77;;;;;;;-1.51;76.33;94540.63;5047380;28;20209;-62
2021/12/09 05:34:55;;;;;;;58.67;43.87;;;;;;;-1.47;75.83;94538.69;5031522;28;20249;-62
2021/12/09 05:37:24;;;;;;;60.30;42.47;;;;;;;-1.52;75.97;94536.41;5033953;28;20244;-62
2021/12/09 05:39:52;;;;;;;61.90;44.70;;;;;;;-1.50;75.39;94544.84;5034334;28;20226;-62
2021/12/09 05:42:20;;;;;;;64.20;46.27;;;;;;;-1.60;75.28;94543.75;5036832;28;20237;-62
2021/12/09 05:44:47;;;;;;;64.63;47.10;;;;;;;-1.65;75.71;94558.66;5035220;28;20256;-62
2021/12/09 05:47:12;;;;;;;64.47;45.40;;;;;;;-1.66;75.67;94557.00;5036314;28;20229;-62
2021/12/09 05:49:42;;;;;;;63.63;46.07;;;;;;;-1.64;75.65;94547.44;5030907;28;20265;-63
2021/12/09 05:52:09;;;;;;;62.93;45.03;;;;;;;-1.71;75.38;94553.84;5035950;28;20199;-62
2021/12/09 05:54:35;;;;;;;64.30;45.53;;;;;;;-1.72;75.58;94547.03;5035090;28;20309;-64
2021/12/09 05:57:00;;;;;;;64.83;47.43;;;;;;;-1.72;75.96;94558.19;5037862;28;20230;-62
2021/12/09 05:59:27;;;;;;;62.60;46.07;;;;;;;-1.62;75.86;94556.72;5036323;28;20257;-62
2021/12/09 06:01:53;;;;;;;66.43;48.40;;;;;;;-1.61;75.08;94571.25;5038339;28;20229;-61
2021/12/09 06:04:19;;;;;;;63.70;45.07;;;;;;;-1.50;75.00;94562.06;5034447;28;20194;-62
2021/12/09 06:06:45;;;;;;;66.07;48.37;;;;;;;-1.44;74.90;94552.25;5036362;28;20222;-61
2021/12/09 06:09:11;;;;;;;63.67;47.37;;;;;;;-1.64;75.00;94557.75;5040632;28;20229;-62
2021/12/09 06:11:39;;;;;;;64.53;48.03;;;;;;;-1.66;74.87;94551.84;5035962;28;20218;-65
2021/12/09 06:14:06;;;;;;;63.27;45.57;;;;;;;-1.57;74.69;94562.44;5041378;28;20300;-61
2021/12/09 06:16:32;;;;;;;68.53;48.40;;;;;;;-1.57;74.79;94551.31;5042423;28;20210;-61
2021/12/09 06:18:58;;;;;;;65.37;44.57;;;;;;;-1.50;74.82;94551.75;5035789;28;20226;-62
2021/12/09 06:21:27;;;;;;;59.60;42.77;;;;;;;-1.44;74.29;94552.25;5035597;28;20245;-61
2021/12/09 06:23:53;;;;;;;68.70;45.03;;;;;;;-1.42;74.73;94570.19;5040371;28;20256;-61
2021/12/09 06:26:20;;;;;;;62.40;42.10;;;;;;;-1.27;73.82;94568.47;5034251;28;20237;-61
2021/12/09 06:28:46;;;;;;;65.67;43.17;;;;;;;-1.29;73.91;94565.97;5036447;28;20225;-62
2021/12/09 06:31:12;;;;;;;70.10;43.23;;;;;;;-1.33;74.48;94575.66;5041114;28;20206;-61
2021/12/09 06:33:37;;;;;;;70.30;46.30;;;;;;;-1.41;74.36;94556.41;5036403;28;20225;-64
2021/12/09 06:36:03;;;;;;;80.80;47.10;;;;;;;-1.28;74.46;94571.94;5036988;28;20302;-61
2021/12/09 06:38:29;;;;;;;71.47;45.53;;;;;;;-1.24;74.49;94573.44;5037051;28;20225;-62
2021/12/09 06:40:55;;;;;;;69.30;45.53;;;;;;;-1.33;74.31;94561.94;5037056;28;20229;-66
2021/12/09 06:43:22;;;;;;;72.73;47.83;;;;;;;-1.25;74.42;94564.88;5037395;28;20212;-62
2021/12/09 06:45:48;;;;;;;67.17;41.27;;;;;;;-1.16;74.80;94566.06;5039134;28;20242;-61
2021/12/09 06:48:13;;;;;;;69.57;43.17;;;;;;;-1.02;74.91;94572.97;5037705;28;20290;-65
2021/12/09 06:50:39;;;;;;;68.23;41.13;;;;;;;-1.16;75.01;94559.16;5038056;28;20237;-63
2021/12/09 06:53:05;;;;;;;76.93;43.13;;;;;;;-1.08;74.73;94563.84;5038511;28;20226;-60
2021/12/09 06:55:31;;;;;;;74.27;43.63;;;;;;;-1.07;75.12;94560.34;5036565;28;20225;-63
2021/12/09 06:57:56;;;;;;;70.63;42.80;;;;;;;-1.01;74.20;94572.06;5034597;28;20252;-61
2021/12/09 07:00:46;;;;;;;65.20;41.87;;;;;;;-1.01;74.58;94554.81;5033517;28;20226;-63
2021/12/09 07:03:16;;;;;;;64.87;40.33;;;;;;;-0.93;74.45;94568.09;5026692;28;20221;-68
2021/12/09 07:05:44;;;;;;;55.23;37.43;;;;;;;-0.81;74.13;94568.25;5029245;28;20238;-66
2021/12/09 07:08:10;;;;;;;61.93;37.63;;;;;;;-0.93;74.29;94555.19;5033083;28;20229;-66
2021/12/09 07:10:35;;;;;;;63.13;39.13;;;;;;;-0.96;74.30;94555.38;5028534;28;20245;-66
2021/12/09 07:13:03;;;;;;;54.43;35.30;;;;;;;-0.95;73.98;94558.78;5034484;28;20218;-66
2021/12/09 07:15:28;;;;;;;42.53;29.90;;;;;;;-0.89;74.62;94560.97;5029653;28;20229;-66
2021/12/09 07:17:54;;;;;;;52.67;33.20;;;;;;;-0.89;74.67;94559.22;5033014;28;20237;-65
2021/12/09 07:20:23;;;;;;;52.20;35.80;;;;;;;-0.82;74.28;94564.84;5026871;28;20237;-65
2021/12/09 07:22:49;;;;;;;53.43;33.80;;;;;;;-0.73;73.99;94568.59;5034357;28;20268;-66
2021/12/09 07:25:15;;;;;;;53.27;34.37;;;;;;;-0.63;73.59;94554.22;5033372;28;20249;-66
2021/12/09 07:27:41;;;;;;;51.73;34.67;;;;;;;-0.55;73.35;94548.56;5035704;28;20238;-64
2021/12/09 07:30:10;;;;;;;57.00;37.23;;;;;;;-0.62;72.52;94549.88;5035894;28;20456;-66
2021/12/09 07:32:36;;;;;;;62.30;39.07;;;;;;;-0.65;72.76;94542.31;5032733;28;20230;-67
2021/12/09 07:35:04;;;;;;;66.03;41.27;;;;;;;-0.53;73.00;94554.47;5033780;28;20241;-65
2021/12/09 07:37:29;;;;;;;76.60;47.23;;;;;;;-0.55;73.41;94530.50;5047996;28;20317;-67
2021/12/09 07:39:55;;;;;;;83.90;49.67;;;;;;;-0.36;72.51;94537.91;5035023;28;20225;-66
2021/12/09 07:42:21;;;;;;;78.67;48.20;;;;;;;-0.39;72.06;94540.69;5030969;28;20229;-67
2021/12/09 07:44:46;;;;;;;85.73;52.90;;;;;;;-0.33;72.26;94542.88;5036055;28;20221;-64
2021/12/09 07:47:12;;;;;;;81.47;52.67;;;;;;;-0.23;71.20;94546.53;5033076;28;20226;-62
2021/12/09 07:49:38;;;;;;;83.03;52.73;;;;;;;-0.30;71.72;94547.84;5032303;28;20213;-63
2021/12/09 07:52:04;;;;;;;81.93;52.27;;;;;;;-0.25;71.35;94540.63;5033880;28;20222;-62
2021/12/09 07:54:30;;;;;;;87.23;51.87;;;;;;;-0.19;71.15;94526.47;5030611;28;20223;-62
2021/12/09 07:56:56;;;;;;;83.83;51.17;;;;;;;-0.14;71.38;94532.19;5031512;28;20257;-66
2021/12/09 07:59:21;;;;;;;83.70;51.43;;;;;;;-0.03;71.74;94535.75;5037933;28;20233;-64
2021/12/09 08:01:47;;;;;;;75.13;47.93;;;;;;;-0.11;71.60;94534.56;5036191;28;20289;-61
2021/12/09 08:04:13;;;;;;;77.60;47.70;;;;;;;-0.09;70.71;94537.88;5030816;28;20216;-60
2021/12/09 08:06:39;;;;;;;82.33;48.97;;;;;;;-0.18;71.04;94534.13;5038019;28;20260;-61
2021/12/09 08:09:06;;;;;;;73.60;47.17;;;;;;;0.09;71.04;94530.69;5036690;28;20230;-61
2021/12/09 08:11:33;;;;;;;69.77;45.73;;;;;;;0.13;71.75;94538.13;5036303;28;20234;-61
2021/12/09 08:13:59;;;;;;;71.57;46.67;;;;;;;0.18;70.47;94535.25;5039820;28;20225;-67
2021/12/09 08:16:25;;;;;;;73.53;46.40;;;;;;;0.10;70.94;94532.34;5038228;28;20289;-63
2021/12/09 08:18:57;;;;;;;76.80;47.93;;;;;;;0.31;71.05;94548.19;5035744;28;20210;-63
2021/12/09 08:21:26;;;;;;;75.77;45.87;;;;;;;0.45;70.21;94542.94;5034700;28;20234;-61
2021/12/09 08:23:53;;;;;;;79.27;47.47;;;;;;;0.38;70.29;94546.88;5029761;28;20284;-62
2021/12/09 08:26:19;;;;;;;77.07;46.80;;;;;;;0.63;68.88;94528.75;5034582;28;20230;-63
2021/12/09 08:28:45;;;;;;;79.50;48.93;;;;;;;0.67;69.17;94532.00;5046943;28;20281;-63
2021/12/09 08:31:11;;;;;;;77.27;49.80;;;;;;;0.52;69.37;94527.84;5036373;28;20213;-63
2021/12/09 08:33:36;;;;;;;74.70;47.00;;;;;;;0.25;69.99;94551.19;5039030;28;20245;-62
2021/12/09 08:36:03;;;;;;;75.33;45.97;;;;;;;0.32;68.96;94522.25;5036948;28;20237;-64
2021/12/09 08:38:29;;;;;;;78.13;45.27;;;;;;;0.41;69.81;94551.84;5032944;28;20268;-64
2021/12/09 08:40:55;;;;;;;70.90;45.37;;;;;;;0.82;68.16;94514.56;5035154;28;20233;-63
2021/12/09 08:43:21;;;;;;;72.37;45.53;;;;;;;1.10;68.21;94550.56;5038697;28;20258;-62
2021/12/09 08:45:49;;;;;;;71.43;47.10;;;;;;;1.13;66.92;94496.94;5032998;28;20241;-62
2021/12/09 08:48:15;;;;;;;70.60;44.03;;;;;;;0.97;67.97;94546.34;5033926;28;20230;-62
2021/12/09 08:50:43;;;;;;;76.50;44.87;;;;;;;0.78;68.86;94521.72;5036764;28;20277;-63
2021/12/09 08:53:12;;;;;;;75.43;46.50;;;;;;;0.83;68.63;94498.94;5040748;28;20218;-63
2021/12/09 08:55:40;;;;;;;65.90;43.63;;;;;;;0.99;68.77;94518.56;5034514;28;20230;-62
2021/12/09 08:58:06;;;;;;;65.90;43.77;;;;;;;0.92;69.15;94527.72;5035927;28;20237;-62
2021/12/09 09:00:33;;;;;;;62.43;42.00;;;;;;;0.98;69.06;94527.28;5035450;28;20209;-62
2021/12/09 09:03:00;;;;;;;61.13;39.93;;;;;;;1.09;67.95;94507.47;5036223;28;20256;-65
2021/12/09 09:05:26;;;;;;;64.13;41.33;;;;;;;1.00;67.39;94509.91;5036739;28;20237;-63
2021/12/09 09:07:53;;;;;;;59.30;41.67;;;;;;;1.32;66.58;94492.91;5038092;28;20202;-62
2021/12/09 09:10:22;;;;;;;62.50;41.23;;;;;;;1.41;67.38;94490.59;5037052;28;20266;-62
2021/12/09 09:12:48;;;;;;;61.70;39.03;;;;;;;1.62;66.94;94478.69;5037531;28;20221;-63
2021/12/09 09:15:16;;;;;;;61.77;38.60;;;;;;;1.54;66.92;94510.34;5033599;28;20249;-61
2021/12/09 09:17:42;;;;;;;62.63;39.37;;;;;;;1.38;67.16;94490.84;5034770;28;20268;-62
2021/12/09 09:20:10;;;;;;;62.37;40.43;;;;;;;1.43;67.36;94478.38;5034298;28;20233;-67
2021/12/09 09:22:39;;;;;;;60.67;40.27;;;;;;;1.31;67.32;94459.38;5033004;28;20240;-63
2021/12/09 09:25:09;;;;;;;57.43;38.80;;;;;;;1.51;67.35;94455.34;5033380;28;20213;-67
2021/12/09 09:27:35;;;;;;;52.80;35.90;;;;;;;1.55;66.90;94436.03;5038553;28;20268;-64
2021/12/09 09:30:04;;;;;;;52.53;37.57;;;;;;;1.60;67.45;94459.00;5036218;28;20285;-63
2021/12/09 09:32:30;;;;;;;56.13;38.13;;;;;;;1.63;66.43;94459.63;5035878;28;20226;-62
2021/12/09 09:34:55;;;;;;;54.50;39.30;;;;;;;1.66;67.20;94469.78;5033114;28;20229;-63
2021/12/09 09:37:21;;;;;;;54.93;39.17;;;;;;;1.77;66.08;94466.41;5038686;28;20239;-63
2021/12/09 09:39:47;;;;;;;56.57;39.93;;;;;;;1.76;65.66;94457.81;5037983;28;20353;-64
2021/12/09 09:44:54;;;;;;;56.67;39.83;;;;;;;2.04;65.69;94463.53;5045095;28;20313;-61
2021/12/09 09:47:21;;;;;;;54.27;38.93;;;;;;;1.92;65.69;94443.69;5037139;28;20226;-65
2021/12/09 09:49:48;;;;;;;61.37;43.50;;;;;;;1.88;65.86;94469.03;5036588;28;20202;-64
2021/12/09 09:52:13;;;;;;;57.27;40.17;;;;;;;1.86;66.42;94446.75;5033112;28;20285;-64
2021/12/09 09:54:40;;;;;;;66.47;43.60;;;;;;;1.95;66.18;94454.69;5036590;28;20289;-64
2021/12/09 09:57:07;;;;;;;62.90;43.37;;;;;;;1.88;65.99;94434.50;5037752;28;20244;-65
2021/12/09 09:59:33;;;;;;;58.73;40.70;;;;;;;1.82;67.76;94412.47;5045107;28;20236;-63
2021/12/09 10:01:59;;;;;;;58.93;41.37;;;;;;;2.01;66.55;94411.91;5039126;28;20253;-61
2021/12/09 10:04:32;;;;;;;64.77;43.27;;;;;;;2.03;66.83;94407.41;5037857;28;20202;-63
2021/12/09 10:06:59;;;;;;;61.67;43.13;;;;;;;2.12;66.58;94385.19;5037961;28;20220;-62
2021/12/09 10:09:26;;;;;;;58.53;42.00;;;;;;;1.98;66.88;94402.59;5037493;28;20297;-63
2021/12/09 10:11:51;;;;;;;67.67;42.53;;;;;;;1.90;67.25;94423.09;5040141;28;20284;-63
2021/12/09 10:14:21;;;;;;;67.40;45.93;;;;;;;2.07;66.61;94384.69;5027146;28;20224;-63
2021/12/09 10:17:20;;;;;;;56.93;42.37;;;;;;;2.35;67.01;94404.16;5044265;28;20321;-64
2021/12/09 10:19:52;;;;;;;61.43;41.30;;;;;;;2.50;65.06;94408.19;5037308;28;20273;-67
2021/12/09 10:22:23;;;;;;;65.13;46.53;;;;;;;2.21;66.38;94393.06;5044271;28;20232;-64
2021/12/09 10:24:52;;;;;;;62.60;43.57;;;;;;;2.34;66.38;94403.34;5037612;28;20284;-64
2021/12/09 10:27:29;;;;;;;62.83;44.30;;;;;;;2.34;66.08;94376.56;5035380;28;20344;-62
2021/12/09 10:30:19;;;;;;;62.37;45.53;;;;;;;2.26;65.73;94410.06;5042265;28;20351;-63
2021/12/09 10:32:46;;;;;;;65.90;45.77;;;;;;;2.25;66.25;94385.06;5037592;28;20226;-63
2021/12/09 10:35:15;;;;;;;66.23;46.77;;;;;;;2.35;66.59;94398.97;5037873;28;20329;-65
2021/12/09 10:37:41;;;;;;;64.90;45.40;;;;;;;2.46;65.46;94385.16;5039065;28;20225;-64
2021/12/09 10:40:13;;;;;;;67.43;47.07;;;;;;;2.34;65.69;94384.34;5035236;28;20233;-64
2021/12/09 10:42:47;;;;;;;69.13;48.87;;;;;;;2.50;65.44;94378.81;5028341;28;20249;-64
2021/12/09 10:45:14;;;;;;;66.83;47.00;;;;;;;2.50;65.89;94381.41;5031148;28;20237;-64
2021/12/09 10:50:36;;;;;;;66.93;48.93;;;;;;;2.97;64.50;94367.31;5033335;28;20217;-62
2021/12/09 10:55:51;;;;;;;68.00;48.80;;;;;;;3.54;62.58;94353.16;5030503;28;20236;-66
2021/12/09 10:58:20;;;;;;;68.57;48.13;;;;;;;3.66;62.99;94376.50;5030826;28;20297;-63
2021/12/09 11:00:47;;;;;;;74.40;49.87;;;;;;;3.89;62.05;94365.03;5032571;28;20225;-62
2021/12/09 11:03:24;;;;;;;79.83;49.53;;;;;;;4.06;61.46;94355.00;5033880;28;20244;-64
2021/12/09 11:06:07;;;;;;;70.43;50.77;;;;;;;3.70;61.04;94350.13;5043248;28;20276;-63
2021/12/09 11:08:41;;;;;;;74.80;50.80;;;;;;;3.66;61.30;94372.16;5030046;28;20306;-64
2021/12/09 11:11:18;;;;;;;76.13;50.83;;;;;;;3.51;62.41;94340.41;5030653;28;20279;-64
2021/12/09 11:13:56;;;;;;;74.83;53.27;;;;;;;3.63;63.55;94350.75;5034487;28;20240;-63
2021/12/09 11:16:25;;;;;;;76.57;54.27;;;;;;;3.83;62.68;94352.53;5034422;28;20221;-62
2021/12/09 11:19:03;;;;;;;79.73;53.87;;;;;;;3.97;61.35;94343.59;5030702;28;20271;-62
2021/12/09 11:21:33;;;;;;;82.47;55.30;;;;;;;4.03;62.07;94352.66;5031375;28;20241;-63
2021/12/09 11:24:12;;;;;;;80.73;55.10;;;;;;;4.43;60.47;94345.72;5033474;28;20293;-63
2021/12/09 11:29:17;;;;;;;83.43;55.50;;;;;;;4.52;61.10;94343.31;5032876;28;20241;-63
2021/12/09 11:31:58;;;;;;;87.07;57.70;;;;;;;4.18;61.86;94325.34;5030646;28;20216;-62
2021/12/09 11:34:29;;;;;;;93.60;60.63;;;;;;;4.09;62.67;94365.13;5036968;28;20205;-62